Terminal Aerodrome Forecast
Issued by NWS

Home | Current Version | Previous Version | Text Only | Print | Product List | Glossary On
Versions: 1 2 3 4 5 6 7 8 9 10 11 12 13 14 15 16 17 18 19 20
000
FTUS46 KLOX 182034 AAA
TAFBUR
TAF AMD
KBUR 182034Z 1821/1918 17007KT 4SM HZ BKN120
     FM182200 17008KT P6SM SCT025 BKN150
     FM190300 16010KT P6SM -SHRA BKN015 OVC090
     FM190600 13012G22KT 3SM +RA BR BKN008 OVC015
     FM191000 15010G22KT 3SM RA BR OVC007
     FM191500 21014G25KT 3SM TSRA BR BKN005 OVC010CB=

USA.gov is the U.S. government's official web portal to all federal, state and local government web resources and services.